createdAt,value
2023-03-15T00:01:38.528Z,34.96
2023-03-15T00:04:11.792Z,34.98
2023-03-15T00:06:44.003Z,35.02
2023-03-15T00:09:16.573Z,35.04
2023-03-15T00:11:48.872Z,35.28
2023-03-15T00:14:21.485Z,35.37
2023-03-15T00:16:54.894Z,35.45
2023-03-15T00:19:27.476Z,35.44
2023-03-15T00:21:59.715Z,35.55
2023-03-15T00:24:32.081Z,35.49
2023-03-15T00:27:06.100Z,35.67
2023-03-15T00:29:38.388Z,36.06
2023-03-15T00:32:10.942Z,35.96
2023-03-15T00:34:49.064Z,36.11
2023-03-15T00:37:21.660Z,36.01
2023-03-15T00:39:55.784Z,36.09
2023-03-15T00:42:28.282Z,36.18
2023-03-15T00:45:00.696Z,36.27
2023-03-15T00:47:32.993Z,36.64
2023-03-15T00:50:05.470Z,36.40
2023-03-15T00:52:38.911Z,36.31
2023-03-15T00:55:14.499Z,36.57
2023-03-15T00:57:46.494Z,36.78
2023-03-15T01:00:24.407Z,36.74
2023-03-15T01:02:56.928Z,36.83
2023-03-15T01:05:29.574Z,36.86
2023-03-15T01:08:03.438Z,36.83
2023-03-15T01:10:37.680Z,37.00
2023-03-15T01:13:10.033Z,37.32
2023-03-15T01:15:46.456Z,37.32
2023-03-15T01:18:18.842Z,37.40
2023-03-15T01:20:51.138Z,37.28
2023-03-15T01:23:23.654Z,37.36
2023-03-15T01:25:56.130Z,37.56
2023-03-15T01:28:28.488Z,37.74
2023-03-15T01:31:00.899Z,37.83
2023-03-15T01:33:33.216Z,38.16
2023-03-15T01:36:08.023Z,38.09
2023-03-15T01:38:40.273Z,38.13
2023-03-15T01:41:13.165Z,38.36
2023-03-15T01:43:48.297Z,38.60
2023-03-15T01:46:29.750Z,38.78
2023-03-15T01:49:08.499Z,38.98
2023-03-15T01:51:47.416Z,38.72
2023-03-15T01:54:24.511Z,39.36
2023-03-15T01:57:01.432Z,39.37
2023-03-15T01:59:37.989Z,39.49
2023-03-15T02:02:15.072Z,39.36
2023-03-15T02:04:51.428Z,39.57
2023-03-15T02:07:26.242Z,39.68
2023-03-15T02:10:05.563Z,39.91
2023-03-15T02:12:40.178Z,40.12
2023-03-15T02:15:14.534Z,40.13
2023-03-15T02:17:48.999Z,40.32
2023-03-15T02:20:32.490Z,40.62
2023-03-15T02:23:07.590Z,40.63
2023-03-15T02:25:49.936Z,40.89
2023-03-15T02:28:23.209Z,40.84
2023-03-15T02:30:55.466Z,41.18
2023-03-15T02:33:30.165Z,41.21
2023-03-15T02:36:11.656Z,41.36
2023-03-15T02:38:43.955Z,41.50
2023-03-15T02:41:20.230Z,41.48
2023-03-15T02:43:57.170Z,41.64
2023-03-15T02:46:29.804Z,41.72
2023-03-15T02:49:03.917Z,41.75
2023-03-15T02:51:36.435Z,41.74
2023-03-15T02:54:08.927Z,41.86
2023-03-15T02:56:41.373Z,41.67
2023-03-15T02:59:13.999Z,41.87
2023-03-15T03:01:46.671Z,42.09
2023-03-15T03:04:19.034Z,42.27
2023-03-15T03:06:51.317Z,42.16
2023-03-15T03:09:23.931Z,42.11
2023-03-15T03:11:56.294Z,42.17
2023-03-15T03:14:28.618Z,42.34
2023-03-15T03:17:01.743Z,42.50
2023-03-15T03:19:34.114Z,42.51
2023-03-15T03:22:06.491Z,42.52
2023-03-15T03:24:38.780Z,42.68
2023-03-15T03:27:11.485Z,42.80
2023-03-15T03:29:44.306Z,42.87
2023-03-15T03:32:16.861Z,43.05
2023-03-15T03:34:49.596Z,42.90
2023-03-15T03:37:22.368Z,43.01
2023-03-15T03:39:54.905Z,43.20
2023-03-15T03:42:27.130Z,43.17
2023-03-15T03:44:59.487Z,43.27
2023-03-15T03:47:31.720Z,43.17
2023-03-15T03:50:04.070Z,43.47
2023-03-15T03:52:36.396Z,43.63
2023-03-15T03:55:09.877Z,43.47
2023-03-15T03:57:42.995Z,43.65
2023-03-15T04:00:18.025Z,43.66
2023-03-15T04:02:54.328Z,44.00
2023-03-15T04:05:27.351Z,43.81
2023-03-15T04:08:00.482Z,43.77
2023-03-15T04:10:35.183Z,43.76
2023-03-15T04:13:07.425Z,43.98
2023-03-15T04:15:39.791Z,43.77
2023-03-15T04:18:12.883Z,44.12
2023-03-15T04:20:47.022Z,44.09
2023-03-15T04:23:20.331Z,44.19
2023-03-15T04:25:55.351Z,44.16
2023-03-15T04:28:27.628Z,44.12
2023-03-15T04:31:04.442Z,44.16
2023-03-15T04:33:36.723Z,44.43
2023-03-15T04:36:09.960Z,44.47
2023-03-15T04:38:42.352Z,44.67
2023-03-15T04:41:15.035Z,44.60
2023-03-15T04:43:47.647Z,44.49
2023-03-15T04:46:19.956Z,44.89
2023-03-15T04:48:52.553Z,44.72
2023-03-15T04:51:25.024Z,44.83
2023-03-15T04:53:57.365Z,44.99
2023-03-15T04:56:30.301Z,45.03
2023-03-15T04:59:02.755Z,45.15
2023-03-15T05:01:35.327Z,45.37
2023-03-15T05:04:07.921Z,45.45
2023-03-15T05:06:40.119Z,45.40
2023-03-15T05:09:18.702Z,45.63
2023-03-15T05:11:51.168Z,45.57
2023-03-15T05:14:23.558Z,45.67
2023-03-15T05:16:58.677Z,45.72
2023-03-15T05:19:34.323Z,45.81
2023-03-15T05:22:07.024Z,45.77
2023-03-15T05:24:39.483Z,46.08
2023-03-15T05:27:13.744Z,46.04
2023-03-15T05:29:46.591Z,46.14
2023-03-15T05:32:19.039Z,46.02
2023-03-15T05:34:51.239Z,46.19
2023-03-15T05:37:24.229Z,46.17
2023-03-15T05:39:57.045Z,46.37
2023-03-15T05:42:29.574Z,46.35
2023-03-15T05:45:02.075Z,46.42
2023-03-15T05:47:34.490Z,46.51
2023-03-15T05:50:08.431Z,46.80
2023-03-15T05:52:40.721Z,46.41
2023-03-15T05:55:13.306Z,46.63
2023-03-15T05:57:45.640Z,46.43
2023-03-15T06:00:20.148Z,46.72
2023-03-15T06:02:52.772Z,46.61
2023-03-15T06:05:25.097Z,46.43
2023-03-15T06:07:57.545Z,46.49
2023-03-15T06:10:30.000Z,46.54
2023-03-15T06:13:02.441Z,46.55
2023-03-15T06:15:34.821Z,46.70
2023-03-15T06:18:08.241Z,46.83
2023-03-15T06:20:41.032Z,46.68
2023-03-15T06:23:13.458Z,46.74
2023-03-15T06:25:46.986Z,46.59
2023-03-15T06:28:19.257Z,46.58
2023-03-15T06:30:51.729Z,46.82
2023-03-15T06:33:24.940Z,46.60
2023-03-15T06:35:57.237Z,46.65
2023-03-15T06:38:30.282Z,46.60
2023-03-15T06:41:02.682Z,46.83
2023-03-15T06:43:35.071Z,46.65
2023-03-15T06:46:07.736Z,46.74
2023-03-15T06:48:40.127Z,46.49
2023-03-15T06:51:12.414Z,46.50
2023-03-15T06:53:47.762Z,46.35
2023-03-15T06:56:20.094Z,46.34
2023-03-15T06:58:52.433Z,46.09
2023-03-15T07:01:24.766Z,46.12
2023-03-15T07:03:57.628Z,46.04
2023-03-15T07:06:30.152Z,45.99
2023-03-15T07:09:02.966Z,45.92
2023-03-15T07:11:35.567Z,45.74
2023-03-15T07:14:07.997Z,45.68
2023-03-15T07:16:40.801Z,45.59
2023-03-15T07:19:13.112Z,45.54
2023-03-15T07:21:45.428Z,45.24
2023-03-15T07:24:17.789Z,44.88
2023-03-15T07:26:55.002Z,44.83
2023-03-15T07:29:28.517Z,44.59
2023-03-15T07:32:01.592Z,44.63
2023-03-15T07:34:33.968Z,44.67
2023-03-15T07:37:07.733Z,44.65
2023-03-15T07:39:40.139Z,44.76
2023-03-15T07:42:13.233Z,44.74
2023-03-15T07:44:45.527Z,44.52
2023-03-15T07:47:17.881Z,44.48
2023-03-15T07:49:50.305Z,44.11
2023-03-15T07:52:23.372Z,44.23
2023-03-15T07:54:55.895Z,44.20
2023-03-15T07:57:29.033Z,43.93
2023-03-15T08:00:01.581Z,44.02
2023-03-15T08:02:34.011Z,43.90
2023-03-15T08:05:07.138Z,43.79
2023-03-15T08:07:39.792Z,43.77
2023-03-15T08:10:13.877Z,43.94
2023-03-15T08:12:46.453Z,43.76
2023-03-15T08:15:19.424Z,43.89
2023-03-15T08:17:51.867Z,43.86
2023-03-15T08:20:24.751Z,44.04
2023-03-15T08:22:57.154Z,43.99
2023-03-15T08:25:29.948Z,44.00
2023-03-15T08:28:02.285Z,43.96
2023-03-15T08:30:34.680Z,44.05
2023-03-15T08:33:07.716Z,44.02
2023-03-15T08:35:41.507Z,43.94
2023-03-15T08:38:14.709Z,43.90
2023-03-15T08:40:48.010Z,43.93
2023-03-15T08:43:20.395Z,43.96
2023-03-15T08:46:01.845Z,43.94
2023-03-15T08:48:34.522Z,43.76
2023-03-15T08:51:09.092Z,43.85
2023-03-15T08:53:41.604Z,43.93
2023-03-15T08:56:14.100Z,43.88
2023-03-15T08:58:46.961Z,43.90
2023-03-15T09:01:19.447Z,43.79
2023-03-15T09:03:52.072Z,43.93
2023-03-15T09:06:24.624Z,43.91
2023-03-15T09:08:57.023Z,44.02
2023-03-15T09:11:29.322Z,44.05
2023-03-15T09:14:01.794Z,43.94
2023-03-15T09:16:34.185Z,43.94
2023-03-15T09:19:06.541Z,43.87
2023-03-15T09:21:38.913Z,43.95
2023-03-15T09:24:11.268Z,44.02
2023-03-15T09:26:43.941Z,43.93
2023-03-15T09:29:16.256Z,43.75
2023-03-15T09:31:48.685Z,43.80
2023-03-15T09:34:21.897Z,43.55
2023-03-15T09:36:54.680Z,43.47
2023-03-15T09:39:27.040Z,43.43
2023-03-15T09:42:04.183Z,43.41
2023-03-15T09:44:46.662Z,43.23
2023-03-15T09:47:37.965Z,43.28
2023-03-15T09:50:20.610Z,43.17
2023-03-15T09:52:57.377Z,43.15
2023-03-15T09:55:30.836Z,42.89
2023-03-15T09:58:05.461Z,42.86
2023-03-15T10:00:42.841Z,42.77
2023-03-15T10:03:22.919Z,42.75
2023-03-15T10:06:00.348Z,42.38
2023-03-15T10:08:34.556Z,42.36
2023-03-15T10:11:16.052Z,42.23
2023-03-15T10:13:59.744Z,42.13
2023-03-15T10:16:41.071Z,42.12
2023-03-15T10:19:27.035Z,41.96
2023-03-15T10:22:05.050Z,41.76
2023-03-15T10:24:42.434Z,41.77
2023-03-15T10:27:23.951Z,41.82
2023-03-15T10:30:00.008Z,41.68
2023-03-15T10:32:46.908Z,41.58
2023-03-15T10:35:21.656Z,41.69
2023-03-15T10:37:53.960Z,41.41
2023-03-15T10:40:46.845Z,41.54
2023-03-15T10:43:23.797Z,41.54
2023-03-15T10:46:03.646Z,41.51
2023-03-15T10:48:38.211Z,41.28
2023-03-15T10:51:21.057Z,41.33
2023-03-15T10:54:00.407Z,41.23
2023-03-15T10:56:36.916Z,41.01
2023-03-15T10:59:19.522Z,41.03
2023-03-15T11:01:55.210Z,40.86
2023-03-15T11:04:28.791Z,40.87
2023-03-15T11:07:07.735Z,40.87
2023-03-15T11:09:45.774Z,40.81
2023-03-15T11:12:25.684Z,40.91
2023-03-15T11:15:01.520Z,40.77
2023-03-15T11:17:36.836Z,40.57
2023-03-15T11:20:30.864Z,40.53
2023-03-15T11:23:07.750Z,40.42
2023-03-15T11:25:40.203Z,40.26
2023-03-15T11:28:21.058Z,40.25
2023-03-15T11:30:54.165Z,40.26
2023-03-15T11:33:42.884Z,40.29
2023-03-15T11:36:22.492Z,40.20
2023-03-15T11:38:55.648Z,40.20
2023-03-15T11:41:36.634Z,40.04
2023-03-15T11:44:19.503Z,40.17
2023-03-15T11:46:57.097Z,40.04
2023-03-15T11:49:36.706Z,39.96
2023-03-15T11:52:10.170Z,39.95
2023-03-15T11:54:47.252Z,39.91
2023-03-15T11:57:44.303Z,39.80
2023-03-15T12:00:45.896Z,39.77
2023-03-15T12:03:39.485Z,39.62
2023-03-15T12:06:33.517Z,39.46
2023-03-15T12:09:47.201Z,39.42
2023-03-15T12:12:39.740Z,39.31
2023-03-15T12:15:49.973Z,39.19
2023-03-15T12:18:40.252Z,39.21
2023-03-15T12:21:19.558Z,39.17
2023-03-15T12:24:01.894Z,39.10
2023-03-15T12:26:44.019Z,39.05
2023-03-15T12:29:21.706Z,39.07
2023-03-15T12:31:59.964Z,38.98
2023-03-15T12:34:50.988Z,38.60
2023-03-15T12:37:26.868Z,38.76
2023-03-15T12:40:04.887Z,38.85
2023-03-15T12:43:03.305Z,38.88
2023-03-15T12:45:46.724Z,38.78
2023-03-15T12:48:27.339Z,38.78
2023-03-15T12:51:02.351Z,38.75
2023-03-15T12:53:50.702Z,38.72
2023-03-15T12:56:50.745Z,38.55
2023-03-15T12:59:38.210Z,38.51
2023-03-15T13:02:35.893Z,38.34
2023-03-15T13:05:21.413Z,38.30
2023-03-15T13:07:59.224Z,38.16
2023-03-15T13:11:00.516Z,38.31
2023-03-15T13:13:50.494Z,38.20
2023-03-15T13:16:35.768Z,38.07
2023-03-15T13:19:18.870Z,37.86
2023-03-15T13:22:11.107Z,37.79
2023-03-15T13:24:53.723Z,37.90
2023-03-15T13:27:37.571Z,37.78
2023-03-15T13:30:29.815Z,37.80
2023-03-15T13:33:21.163Z,37.51
2023-03-15T13:36:00.509Z,37.53
2023-03-15T13:38:35.665Z,37.42
2023-03-15T13:41:18.281Z,37.32
2023-03-15T13:43:52.211Z,37.22
2023-03-15T13:46:27.402Z,37.24
2023-03-15T13:49:01.840Z,36.96
2023-03-15T13:51:37.016Z,36.87
2023-03-15T13:54:13.366Z,36.66
2023-03-15T13:56:58.025Z,36.50
2023-03-15T13:59:38.166Z,36.48
2023-03-15T14:02:17.816Z,36.30
2023-03-15T14:04:57.853Z,36.25
2023-03-15T14:07:36.492Z,36.10
2023-03-15T14:10:29.078Z,36.14
2023-03-15T14:13:17.928Z,36.06
2023-03-15T14:15:51.275Z,36.04
2023-03-15T14:18:28.017Z,35.90
2023-03-15T14:21:05.092Z,35.92
2023-03-15T14:23:41.311Z,35.83
2023-03-15T14:26:22.135Z,35.86
2023-03-15T14:28:57.410Z,35.85
2023-03-15T14:31:34.751Z,35.76
2023-03-15T14:34:19.711Z,35.76
2023-03-15T14:36:54.334Z,35.63
2023-03-15T14:39:29.977Z,35.71
2023-03-15T14:42:02.525Z,35.74
2023-03-15T14:44:34.999Z,35.66
2023-03-15T14:47:13.674Z,35.65
2023-03-15T14:49:45.924Z,35.79
2023-03-15T14:52:18.313Z,35.73
2023-03-15T14:54:52.090Z,35.72
2023-03-15T14:57:24.382Z,35.71
2023-03-15T14:59:56.767Z,35.78
2023-03-15T15:02:29.219Z,35.69
2023-03-15T15:05:04.901Z,35.68
2023-03-15T15:07:37.530Z,35.54
2023-03-15T15:10:11.610Z,35.62
2023-03-15T15:12:45.210Z,35.61
2023-03-15T15:15:23.083Z,35.53
2023-03-15T15:17:55.496Z,35.33
2023-03-15T15:20:28.166Z,35.41
2023-03-15T15:23:01.493Z,35.20
2023-03-15T15:25:35.716Z,35.11
2023-03-15T15:28:08.160Z,34.76
2023-03-15T15:30:40.844Z,34.77
2023-03-15T15:33:13.133Z,34.71
2023-03-15T15:35:46.103Z,34.61
2023-03-15T15:38:18.585Z,34.60
2023-03-15T15:40:50.975Z,34.49
2023-03-15T15:43:23.401Z,34.48
2023-03-15T15:45:55.790Z,34.29
2023-03-15T15:48:28.252Z,34.19
2023-03-15T15:51:00.777Z,34.27
2023-03-15T15:53:34.886Z,34.35
2023-03-15T15:56:12.054Z,34.32
2023-03-15T15:58:45.962Z,34.24
2023-03-15T16:01:18.868Z,34.19
2023-03-15T16:03:51.297Z,34.24
2023-03-15T16:06:24.398Z,34.09
2023-03-15T16:08:57.509Z,34.11
2023-03-15T16:11:30.673Z,33.96
2023-03-15T16:14:02.938Z,34.17
2023-03-15T16:16:35.261Z,34.04
2023-03-15T16:19:07.777Z,34.10
2023-03-15T16:21:43.395Z,34.09
2023-03-15T16:24:19.170Z,34.36
2023-03-15T16:26:51.106Z,34.37
2023-03-15T16:29:27.713Z,34.43
2023-03-15T16:32:13.930Z,34.57
2023-03-15T16:34:49.977Z,34.74
2023-03-15T16:37:25.105Z,34.79
2023-03-15T16:39:57.708Z,34.93
2023-03-15T16:42:30.164Z,35.07
2023-03-15T16:45:02.899Z,35.12
2023-03-15T16:47:35.534Z,35.21
2023-03-15T16:50:08.841Z,35.28
2023-03-15T16:52:43.272Z,35.39
2023-03-15T16:55:17.211Z,35.50
2023-03-15T16:57:49.832Z,35.59
2023-03-15T17:00:24.817Z,35.66
2023-03-15T17:03:00.085Z,35.90
2023-03-15T17:05:35.099Z,36.05
2023-03-15T17:08:07.637Z,35.97
2023-03-15T17:10:41.481Z,36.23
2023-03-15T17:13:17.241Z,36.33
2023-03-15T17:15:49.597Z,36.39
2023-03-15T17:18:28.502Z,36.67
2023-03-15T17:21:01.051Z,36.74
2023-03-15T17:23:33.863Z,36.66
2023-03-15T17:26:07.316Z,36.92
2023-03-15T17:28:40.450Z,37.11
2023-03-15T17:31:25.143Z,37.02
2023-03-15T17:33:58.202Z,37.17
2023-03-15T17:36:34.337Z,37.33
2023-03-15T17:39:07.992Z,37.55
2023-03-15T17:41:43.992Z,37.49
2023-03-15T17:44:16.513Z,37.54
2023-03-15T17:46:49.108Z,37.70
2023-03-15T17:49:21.491Z,37.73
2023-03-15T17:51:53.962Z,37.86
2023-03-15T17:54:26.535Z,38.00
2023-03-15T17:56:59.772Z,37.99
2023-03-15T17:59:33.202Z,38.16
2023-03-15T18:02:07.732Z,38.33
2023-03-15T18:04:40.230Z,38.43
2023-03-15T18:07:13.613Z,38.62
2023-03-15T18:09:46.100Z,38.71
2023-03-15T18:12:19.373Z,38.74
2023-03-15T18:14:51.884Z,38.82
2023-03-15T18:17:25.633Z,39.20
2023-03-15T18:19:58.193Z,39.24
2023-03-15T18:22:30.859Z,39.29
2023-03-15T18:25:03.813Z,39.59
2023-03-15T18:27:36.704Z,39.76
2023-03-15T18:30:11.846Z,39.92
2023-03-15T18:32:44.391Z,39.97
2023-03-15T18:35:21.031Z,40.07
2023-03-15T18:37:56.207Z,40.24
2023-03-15T18:40:31.405Z,40.48
2023-03-15T18:43:05.573Z,40.58
2023-03-15T18:45:38.592Z,40.76
2023-03-15T18:48:11.153Z,41.02
2023-03-15T18:50:43.678Z,41.15
2023-03-15T18:53:15.958Z,41.31
2023-03-15T18:55:48.495Z,41.43
2023-03-15T18:58:22.381Z,41.50
2023-03-15T19:00:54.853Z,41.63
2023-03-15T19:03:27.270Z,41.79
2023-03-15T19:06:06.408Z,41.99
2023-03-15T19:08:39.404Z,42.12
2023-03-15T19:11:12.880Z,42.28
2023-03-15T19:13:50.907Z,42.47
2023-03-15T19:16:24.045Z,42.44
2023-03-15T19:18:56.438Z,42.60
2023-03-15T19:21:29.214Z,42.81
2023-03-15T19:24:01.905Z,42.93
2023-03-15T19:26:34.340Z,43.08
2023-03-15T19:29:06.933Z,43.14
2023-03-15T19:31:40.052Z,43.27
2023-03-15T19:34:12.473Z,43.35
2023-03-15T19:36:44.809Z,43.68
2023-03-15T19:39:18.434Z,43.91
2023-03-15T19:41:50.629Z,43.81
2023-03-15T19:44:23.478Z,43.93
2023-03-15T19:46:56.104Z,44.06
2023-03-15T19:49:31.569Z,44.24
2023-03-15T19:52:04.383Z,44.30
2023-03-15T19:54:37.308Z,44.45
2023-03-15T19:57:09.770Z,44.51
2023-03-15T19:59:42.117Z,44.79
2023-03-15T20:02:15.312Z,44.92
2023-03-15T20:04:47.954Z,44.99
2023-03-15T20:07:20.534Z,45.17
2023-03-15T20:09:53.900Z,45.30
2023-03-15T20:12:26.391Z,45.33
2023-03-15T20:14:58.643Z,45.45
2023-03-15T20:17:31.041Z,45.66
2023-03-15T20:20:05.941Z,45.80
2023-03-15T20:22:40.957Z,45.80
2023-03-15T20:25:14.894Z,46.06
2023-03-15T20:27:47.369Z,46.26
2023-03-15T20:30:20.599Z,46.28
2023-03-15T20:32:53.715Z,46.35
2023-03-15T20:35:26.449Z,46.55
2023-03-15T20:38:06.639Z,46.81
2023-03-15T20:40:40.601Z,47.02
2023-03-15T20:43:12.949Z,47.15
2023-03-15T20:45:45.169Z,47.31
2023-03-15T20:48:17.442Z,47.55
2023-03-15T20:50:52.168Z,47.81
2023-03-15T20:53:24.811Z,47.93
2023-03-15T20:55:57.170Z,48.05
2023-03-15T20:58:29.801Z,48.23
2023-03-15T21:01:10.795Z,48.53
2023-03-15T21:03:43.341Z,48.64
2023-03-15T21:06:16.145Z,48.77
2023-03-15T21:08:48.604Z,48.94
2023-03-15T21:11:20.994Z,49.03
2023-03-15T21:13:53.938Z,49.11
2023-03-15T21:16:26.545Z,49.34
2023-03-15T21:18:59.041Z,49.38
2023-03-15T21:21:34.734Z,49.57
2023-03-15T21:24:07.367Z,49.74
2023-03-15T21:26:44.085Z,49.84
2023-03-15T21:29:16.530Z,50.01
2023-03-15T21:31:48.868Z,50.11
2023-03-15T21:34:21.186Z,50.21
2023-03-15T21:36:53.449Z,50.31
2023-03-15T21:39:25.913Z,50.48
2023-03-15T21:42:01.245Z,50.60
2023-03-15T21:44:34.910Z,50.67
2023-03-15T21:47:07.362Z,50.73
2023-03-15T21:49:40.071Z,50.86
2023-03-15T21:52:12.439Z,50.96
2023-03-15T21:54:45.820Z,51.13
2023-03-15T21:57:18.164Z,51.27
2023-03-15T21:59:50.868Z,51.37
2023-03-15T22:02:23.199Z,51.52
2023-03-15T22:04:56.115Z,51.56
2023-03-15T22:07:28.544Z,51.73
2023-03-15T22:10:00.916Z,51.81
2023-03-15T22:12:33.384Z,51.97
2023-03-15T22:15:06.537Z,52.00
2023-03-15T22:17:39.144Z,52.11
2023-03-15T22:20:16.689Z,52.16
2023-03-15T22:22:50.286Z,52.34
2023-03-15T22:25:23.023Z,52.41
2023-03-15T22:27:55.370Z,52.44
2023-03-15T22:30:28.110Z,52.51
2023-03-15T22:33:01.088Z,52.63
2023-03-15T22:35:33.638Z,52.68
2023-03-15T22:38:10.430Z,52.77
2023-03-15T22:40:43.493Z,52.83
2023-03-15T22:43:16.006Z,53.01
2023-03-15T22:45:48.367Z,53.05
2023-03-15T22:48:21.129Z,53.09
2023-03-15T22:51:00.965Z,53.26
2023-03-15T22:53:34.298Z,53.30
2023-03-15T22:56:07.092Z,53.33
2023-03-15T22:58:39.664Z,53.47
2023-03-15T23:01:12.075Z,53.43
2023-03-15T23:03:44.562Z,53.51
2023-03-15T23:06:17.237Z,53.57
2023-03-15T23:08:49.598Z,53.72
2023-03-15T23:11:21.935Z,53.65
2023-03-15T23:13:54.380Z,53.74
2023-03-15T23:16:26.798Z,53.86
2023-03-15T23:18:59.038Z,53.85
2023-03-15T23:21:31.951Z,53.77
2023-03-15T23:24:04.205Z,53.90
2023-03-15T23:26:37.705Z,53.91
2023-03-15T23:29:11.645Z,53.91
2023-03-15T23:31:44.889Z,54.08
2023-03-15T23:34:17.506Z,53.97
2023-03-15T23:36:49.796Z,54.08
2023-03-15T23:39:22.647Z,54.17
2023-03-15T23:41:58.026Z,54.18
2023-03-15T23:44:30.467Z,54.25
2023-03-15T23:47:05.658Z,54.35
2023-03-15T23:49:37.990Z,54.42
2023-03-15T23:52:11.220Z,54.42
2023-03-15T23:54:44.080Z,54.42
2023-03-15T23:57:17.702Z,54.60
2023-03-15T23:59:50.258Z,54.65
